createdAt,value
2016-05-27T00:00:04.871Z,15.9
2016-05-27T00:00:14.856Z,15.9
2016-05-27T00:00:24.871Z,15.9
2016-05-27T00:00:34.871Z,15.8
2016-05-27T00:00:44.871Z,15.9
2016-05-27T00:00:54.887Z,15.9
2016-05-27T00:01:04.889Z,15.9
2016-05-27T00:01:14.905Z,15.9
2016-05-27T00:01:24.905Z,15.9
2016-05-27T00:01:34.920Z,15.8
2016-05-27T00:01:44.920Z,15.9
2016-05-27T00:01:54.936Z,15.9
2016-05-27T00:02:04.939Z,15.8
2016-05-27T00:02:14.939Z,15.8
2016-05-27T00:02:24.955Z,15.9
2016-05-27T00:02:34.955Z,15.9
2016-05-27T00:02:44.955Z,16
2016-05-27T00:02:54.970Z,16
2016-05-27T00:03:04.973Z,15.9
2016-05-27T00:03:14.973Z,15.8
2016-05-27T00:03:25.364Z,15.8
2016-05-27T00:03:34.989Z,15.9
2016-05-27T00:03:45.004Z,15.9
2016-05-27T00:03:55.692Z,15.9
2016-05-27T00:04:05.023Z,15.9
2016-05-27T00:04:15.023Z,15.8
2016-05-27T00:04:25.039Z,15.8
2016-05-27T00:04:35.039Z,15.9
2016-05-27T00:04:45.070Z,15.9
2016-05-27T00:04:55.086Z,15.9
2016-05-27T00:05:05.056Z,15.9
2016-05-27T00:05:15.072Z,15.8
2016-05-27T00:05:25.072Z,15.9
2016-05-27T00:05:35.072Z,15.9
2016-05-27T00:05:45.072Z,15.8
2016-05-27T00:05:55.088Z,15.9
2016-05-27T00:06:05.091Z,15.9
2016-05-27T00:06:15.106Z,15.8
2016-05-27T00:06:25.106Z,15.9
2016-05-27T00:06:35.122Z,15.9
2016-05-27T00:06:45.122Z,15.9
2016-05-27T00:06:55.122Z,15.8
2016-05-27T00:07:05.140Z,15.9
2016-05-27T00:07:15.140Z,16
2016-05-27T00:07:25.172Z,15.9
2016-05-27T00:07:35.156Z,15.9
2016-05-27T00:07:45.156Z,15.8
2016-05-27T00:07:55.172Z,15.8
2016-05-27T00:08:05.189Z,15.8
2016-05-27T00:08:15.189Z,15.9
2016-05-27T00:08:25.189Z,15.8
2016-05-27T00:08:35.189Z,15.9
2016-05-27T00:08:45.221Z,16
2016-05-27T00:08:55.205Z,16
2016-05-27T00:09:05.224Z,15.9
2016-05-27T00:09:15.224Z,16
2016-05-27T00:09:25.239Z,16
2016-05-27T00:09:35.239Z,16
2016-05-27T00:09:45.239Z,15.9
2016-05-27T00:09:55.255Z,16.1
2016-05-27T00:10:05.273Z,15.9
2016-05-27T00:10:15.258Z,15.9
2016-05-27T00:10:25.273Z,16
2016-05-27T00:10:35.289Z,16.1
2016-05-27T00:10:45.289Z,16
2016-05-27T00:10:55.305Z,16
2016-05-27T00:11:05.307Z,16.1
2016-05-27T00:11:15.307Z,15.9
2016-05-27T00:11:25.322Z,16
2016-05-27T00:11:35.322Z,16
2016-05-27T00:11:45.322Z,16
2016-05-27T00:11:55.322Z,16
2016-05-27T00:12:05.341Z,16
2016-05-27T00:12:15.357Z,16.1
2016-05-27T00:12:25.357Z,16.1
2016-05-27T00:12:35.357Z,16.3
2016-05-27T00:12:45.357Z,16.3
2016-05-27T00:12:55.372Z,16.3
2016-05-27T00:13:05.374Z,16.2
2016-05-27T00:13:15.390Z,16.2
2016-05-27T00:13:25.390Z,16.1
2016-05-27T00:13:35.405Z,16
2016-05-27T00:13:45.405Z,16
2016-05-27T00:13:55.405Z,15.9
2016-05-27T00:14:05.425Z,16.1
2016-05-27T00:14:15.456Z,16.1
2016-05-27T00:14:25.425Z,16.2
2016-05-27T00:14:35.441Z,16.2
2016-05-27T00:14:45.441Z,16.2
2016-05-27T00:14:55.456Z,16.2
2016-05-27T00:15:05.458Z,16.1
2016-05-27T00:15:15.474Z,16.3
2016-05-27T00:15:25.474Z,16.2
2016-05-27T00:15:35.490Z,16.1
2016-05-27T00:15:45.490Z,16.1
2016-05-27T00:15:55.490Z,16.1
2016-05-27T00:16:05.507Z,16.1
2016-05-27T00:16:15.507Z,16.1
2016-05-27T00:16:25.523Z,16
2016-05-27T00:16:35.523Z,16.1
2016-05-27T00:16:45.523Z,16.1
2016-05-27T00:16:55.538Z,16.1
2016-05-27T00:17:05.541Z,16.1
2016-05-27T00:17:15.541Z,16.2
2016-05-27T00:17:25.557Z,16.1
2016-05-27T00:17:35.557Z,16.2
2016-05-27T00:17:45.557Z,16.2
2016-05-27T00:17:55.573Z,16.2
2016-05-27T00:18:05.576Z,16.2
2016-05-27T00:18:15.591Z,16.3
2016-05-27T00:18:25.623Z,16.3
2016-05-27T00:18:35.607Z,16.3
2016-05-27T00:18:45.607Z,16.4
2016-05-27T00:18:55.607Z,16.3
2016-05-27T00:19:05.626Z,16.3
2016-05-27T00:19:15.626Z,16.2
2016-05-27T00:19:25.641Z,16.2
2016-05-27T00:19:35.657Z,16.2
2016-05-27T00:19:45.657Z,16.2
2016-05-27T00:19:55.672Z,16.2
2016-05-27T00:20:05.675Z,16.2
2016-05-27T00:20:15.675Z,16.2
2016-05-27T00:20:25.675Z,16.2
2016-05-27T00:20:35.691Z,16.2
2016-05-27T00:20:45.691Z,16.3
2016-05-27T00:20:55.691Z,16.2
2016-05-27T00:21:05.709Z,16.1
2016-05-27T00:21:15.724Z,16.1
2016-05-27T00:21:25.709Z,16.1
2016-05-27T00:21:35.724Z,16.1
2016-05-27T00:21:45.724Z,16.1
2016-05-27T00:21:55.740Z,16.1
2016-05-27T00:22:05.742Z,16.1
2016-05-27T00:22:15.758Z,16.2
2016-05-27T00:22:25.758Z,16.1
2016-05-27T00:22:35.773Z,16.1
2016-05-27T00:22:45.773Z,16.2
2016-05-27T00:22:55.773Z,16.1
2016-05-27T00:23:05.792Z,16.2
2016-05-27T00:23:15.792Z,16.3
2016-05-27T00:23:25.807Z,16.3
2016-05-27T00:23:35.807Z,16.2
2016-05-27T00:23:45.807Z,16.2
2016-05-27T00:23:55.823Z,16.2
2016-05-27T00:24:05.827Z,16.2
2016-05-27T00:24:15.843Z,16.3
2016-05-27T00:24:25.843Z,16.2
2016-05-27T00:24:35.843Z,16.1
2016-05-27T00:24:45.858Z,16.1
2016-05-27T00:24:55.858Z,16.1
2016-05-27T00:25:05.860Z,16.1
2016-05-27T00:25:15.876Z,16
2016-05-27T00:25:25.876Z,16
2016-05-27T00:25:35.876Z,16
2016-05-27T00:25:45.892Z,16.1
2016-05-27T00:25:55.907Z,16
2016-05-27T00:26:05.910Z,16.2
2016-05-27T00:26:15.910Z,16.3
2016-05-27T00:26:25.926Z,16.2
2016-05-27T00:26:35.926Z,16.2
2016-05-27T00:26:45.941Z,16.2
2016-05-27T00:26:55.941Z,16.1
2016-05-27T00:27:05.943Z,16.1
2016-05-27T00:27:15.959Z,16.3
2016-05-27T00:27:25.959Z,16.3
2016-05-27T00:27:35.959Z,16.3
2016-05-27T00:27:46.084Z,16.2
2016-05-27T00:27:55.975Z,16.2
2016-05-27T00:28:05.993Z,16.2
2016-05-27T00:28:15.993Z,16.1
2016-05-27T00:28:26.071Z,16.2
2016-05-27T00:28:36.009Z,16.2
2016-05-27T00:28:46.009Z,16.2
2016-05-27T00:28:56.025Z,16.3
2016-05-27T00:29:06.058Z,16.4
2016-05-27T00:29:16.027Z,16.4
2016-05-27T00:29:26.058Z,16.4
2016-05-27T00:29:36.058Z,16.3
2016-05-27T00:29:46.152Z,16.3
2016-05-27T00:29:56.058Z,16.2
2016-05-27T00:30:06.076Z,16.1
2016-05-27T00:30:16.076Z,16.2
2016-05-27T00:30:26.092Z,16.3
2016-05-27T00:30:36.092Z,16.2
2016-05-27T00:30:46.092Z,16.3
2016-05-27T00:30:56.123Z,16.3
2016-05-27T00:31:06.111Z,16.3
2016-05-27T00:31:16.126Z,16.2
2016-05-27T00:31:26.126Z,16.3
2016-05-27T00:31:36.142Z,16.2
2016-05-27T00:31:46.142Z,16.1
2016-05-27T00:31:56.142Z,16.2
2016-05-27T00:32:06.145Z,16.1
2016-05-27T00:32:16.161Z,16.2
2016-05-27T00:32:26.161Z,16.1
2016-05-27T00:32:36.176Z,16.1
2016-05-27T00:32:46.176Z,16.1
2016-05-27T00:32:56.176Z,16.1
2016-05-27T00:33:06.209Z,16
2016-05-27T00:33:16.194Z,16.1
2016-05-27T00:33:26.209Z,16.1
2016-05-27T00:33:36.225Z,16.2
2016-05-27T00:33:46.491Z,16.1
2016-05-27T00:33:56.225Z,16.2
2016-05-27T00:34:06.759Z,16.2
2016-05-27T00:34:16.322Z,16.1
2016-05-27T00:34:26.259Z,16.1
2016-05-27T00:34:36.244Z,16.1
2016-05-27T00:34:46.259Z,16.1
2016-05-27T00:34:56.275Z,15.9
2016-05-27T00:35:06.277Z,16
2016-05-27T00:35:16.277Z,16.1
2016-05-27T00:35:26.277Z,16
2016-05-27T00:35:36.308Z,16
2016-05-27T00:35:46.308Z,15.9
2016-05-27T00:35:56.308Z,16
2016-05-27T00:36:06.311Z,15.9
2016-05-27T00:36:16.327Z,16
2016-05-27T00:36:26.327Z,16.1
2016-05-27T00:36:36.327Z,16.1
2016-05-27T00:36:46.342Z,16.1
2016-05-27T00:36:56.342Z,16.1
2016-05-27T00:37:06.345Z,16.1
2016-05-27T00:37:16.361Z,16
2016-05-27T00:37:26.377Z,16
2016-05-27T00:37:36.377Z,16
2016-05-27T00:37:46.377Z,16
2016-05-27T00:37:56.392Z,15.9
2016-05-27T00:38:06.395Z,16
2016-05-27T00:38:16.395Z,15.9
2016-05-27T00:38:26.411Z,16
2016-05-27T00:38:36.411Z,16
2016-05-27T00:38:46.427Z,16
2016-05-27T00:38:56.427Z,16
2016-05-27T00:39:06.429Z,16
2016-05-27T00:39:16.444Z,15.9
2016-05-27T00:39:26.444Z,15.9
2016-05-27T00:39:36.460Z,16
2016-05-27T00:39:46.460Z,15.9
2016-05-27T00:39:56.460Z,15.8
2016-05-27T00:40:06.478Z,15.8
2016-05-27T00:40:16.478Z,15.9
2016-05-27T00:40:26.494Z,15.7
2016-05-27T00:40:36.494Z,15.8
2016-05-27T00:40:46.603Z,15.7
2016-05-27T00:40:56.510Z,15.8
2016-05-27T00:41:06.513Z,15.7
2016-05-27T00:41:16.528Z,15.7
2016-05-27T00:41:26.560Z,15.8
2016-05-27T00:41:36.544Z,15.8
2016-05-27T00:41:46.544Z,15.7
2016-05-27T00:41:56.544Z,15.7
2016-05-27T00:42:06.608Z,15.7
2016-05-27T00:42:16.562Z,15.7
2016-05-27T00:42:26.562Z,15.7
2016-05-27T00:42:36.577Z,15.7
2016-05-27T00:42:46.593Z,15.7
2016-05-27T00:42:56.593Z,15.7
2016-05-27T00:43:06.596Z,15.6
2016-05-27T00:43:16.611Z,15.6
2016-05-27T00:43:26.611Z,15.6
2016-05-27T00:43:36.611Z,15.7
2016-05-27T00:43:46.627Z,15.6
2016-05-27T00:43:56.627Z,15.6
2016-05-27T00:44:06.646Z,15.6
2016-05-27T00:44:16.646Z,15.6
2016-05-27T00:44:26.661Z,15.6
2016-05-27T00:44:36.661Z,15.5
2016-05-27T00:44:46.661Z,15.6
2016-05-27T00:44:56.677Z,15.6
2016-05-27T00:45:06.680Z,15.6
2016-05-27T00:45:16.680Z,15.6
2016-05-27T00:45:26.696Z,15.5
2016-05-27T00:45:36.696Z,15.5
2016-05-27T00:45:46.696Z,15.5
2016-05-27T00:45:56.711Z,15.5
2016-05-27T00:46:06.713Z,15.5
2016-05-27T00:46:16.729Z,15.4
2016-05-27T00:46:26.729Z,15.5
2016-05-27T00:46:36.729Z,15.6
2016-05-27T00:46:46.744Z,15.5
2016-05-27T00:46:56.744Z,15.6
2016-05-27T00:47:06.763Z,15.6
2016-05-27T00:47:16.763Z,15.4
2016-05-27T00:47:26.763Z,15.6
2016-05-27T00:47:36.779Z,15.6
2016-05-27T00:47:46.779Z,15.6
2016-05-27T00:47:56.794Z,15.6
2016-05-27T00:48:06.812Z,15.5
2016-05-27T00:48:16.812Z,15.6
2016-05-27T00:48:26.812Z,15.6
2016-05-27T00:48:36.812Z,15.6
2016-05-27T00:48:46.828Z,15.5
2016-05-27T00:48:56.953Z,15.5
2016-05-27T00:49:06.910Z,15.5
2016-05-27T00:49:16.847Z,15.5
2016-05-27T00:49:26.847Z,15.6
2016-05-27T00:49:36.863Z,15.5
2016-05-27T00:49:46.863Z,15.5
2016-05-27T00:49:56.878Z,15.6
2016-05-27T00:50:06.880Z,15.5
2016-05-27T00:50:16.880Z,15.5
2016-05-27T00:50:26.896Z,15.5
2016-05-27T00:50:36.896Z,15.4
2016-05-27T00:50:46.896Z,15.5
2016-05-27T00:50:56.912Z,15.4
2016-05-27T00:51:06.915Z,15.6
2016-05-27T00:51:16.930Z,15.5
2016-05-27T00:51:26.946Z,15.6
2016-05-27T00:51:36.946Z,15.6
2016-05-27T00:51:46.946Z,15.4
2016-05-27T00:51:56.962Z,15.5
2016-05-27T00:52:06.964Z,15.5
2016-05-27T00:52:16.964Z,15.4
2016-05-27T00:52:26.979Z,15.4
2016-05-27T00:52:36.979Z,15.4
2016-05-27T00:52:46.979Z,15.5
2016-05-27T00:52:56.995Z,15.4
2016-05-27T00:53:06.998Z,15.4
2016-05-27T00:53:17.045Z,15.3
2016-05-27T00:53:27.013Z,15.3
2016-05-27T00:53:37.045Z,15.5
2016-05-27T00:53:47.029Z,15.3
2016-05-27T00:53:57.045Z,15.4
2016-05-27T00:54:07.032Z,15.4
2016-05-27T00:54:17.048Z,15.4
2016-05-27T00:54:27.048Z,15.4
2016-05-27T00:54:37.063Z,15.3
2016-05-27T00:54:47.079Z,15.4
2016-05-27T00:54:57.079Z,15.3
2016-05-27T00:55:07.081Z,15.4
2016-05-27T00:55:17.081Z,15.4
2016-05-27T00:55:27.097Z,15.4
2016-05-27T00:55:37.097Z,15.4
2016-05-27T00:55:47.112Z,15.3
2016-05-27T00:55:57.112Z,15.4
2016-05-27T00:56:07.131Z,15.3
2016-05-27T00:56:17.131Z,15.3
2016-05-27T00:56:27.146Z,15.3
2016-05-27T00:56:37.146Z,15.3
2016-05-27T00:56:47.146Z,15.3
2016-05-27T00:56:57.162Z,15.4
2016-05-27T00:57:07.165Z,15.3
2016-05-27T00:57:17.165Z,15.3
2016-05-27T00:57:27.181Z,15.3
2016-05-27T00:57:37.181Z,15.3
2016-05-27T00:57:47.196Z,15.3
2016-05-27T00:57:57.196Z,15.4
2016-05-27T00:58:07.198Z,15.5
2016-05-27T00:58:17.198Z,15.4
2016-05-27T00:58:27.214Z,15.5
2016-05-27T00:58:37.230Z,15.3
2016-05-27T00:58:47.230Z,15.4
2016-05-27T00:58:57.230Z,15.6
2016-05-27T00:59:07.249Z,15.4
2016-05-27T00:59:17.296Z,15.6
2016-05-27T00:59:27.249Z,15.6
2016-05-27T00:59:37.265Z,15.6
2016-05-27T00:59:47.280Z,15.6
2016-05-27T00:59:57.280Z,15.6
2016-05-27T01:00:07.282Z,15.6
2016-05-27T01:00:17.298Z,15.5
2016-05-27T01:00:27.298Z,15.7
2016-05-27T01:00:37.298Z,15.7
2016-05-27T01:00:47.314Z,15.8
2016-05-27T01:00:57.314Z,15.8
2016-05-27T01:01:07.347Z,15.8
2016-05-27T01:01:17.331Z,15.7
2016-05-27T01:01:27.331Z,15.7
2016-05-27T01:01:37.347Z,15.8
2016-05-27T01:01:47.347Z,15.7
2016-05-27T01:01:57.363Z,15.7
2016-05-27T01:02:07.382Z,15.6
2016-05-27T01:02:17.367Z,15.6
2016-05-27T01:02:27.382Z,15.7
2016-05-27T01:02:37.382Z,15.7
2016-05-27T01:02:47.398Z,15.7
2016-05-27T01:02:57.398Z,15.9
2016-05-27T01:03:07.400Z,15.8
2016-05-27T01:03:17.415Z,15.9
2016-05-27T01:03:28.009Z,16
2016-05-27T01:03:37.681Z,15.9
2016-05-27T01:03:47.431Z,15.8
2016-05-27T01:03:57.431Z,15.8
2016-05-27T01:04:07.622Z,15.9
2016-05-27T01:04:17.450Z,15.8
2016-05-27T01:04:27.450Z,15.8
2016-05-27T01:04:37.465Z,15.9
2016-05-27T01:04:47.465Z,15.9
2016-05-27T01:04:57.481Z,15.8
2016-05-27T01:05:07.483Z,15.8
2016-05-27T01:05:17.499Z,15.8
2016-05-27T01:05:27.499Z,15.8
2016-05-27T01:05:37.499Z,15.7
2016-05-27T01:05:47.514Z,15.6
2016-05-27T01:05:57.514Z,15.6
2016-05-27T01:06:07.533Z,15.6
2016-05-27T01:06:17.564Z,15.6
2016-05-27T01:06:27.548Z,15.4
2016-05-27T01:06:37.548Z,15.6
2016-05-27T01:06:47.564Z,15.6
2016-05-27T01:06:57.564Z,15.6
2016-05-27T01:07:07.583Z,15.4
2016-05-27T01:07:17.567Z,15.4
2016-05-27T01:07:27.583Z,15.4
2016-05-27T01:07:37.583Z,15.5
2016-05-27T01:07:47.598Z,15.5
2016-05-27T01:07:57.598Z,15.4
2016-05-27T01:08:07.600Z,15.5
2016-05-27T01:08:17.616Z,15.5
2016-05-27T01:08:27.616Z,15.4
2016-05-27T01:08:37.616Z,15.4
2016-05-27T01:08:47.647Z,15.5
2016-05-27T01:08:57.632Z,15.5
2016-05-27T01:09:07.650Z,15.5
2016-05-27T01:09:17.650Z,15.5
2016-05-27T01:09:27.666Z,15.4
2016-05-27T01:09:37.666Z,15.4
2016-05-27T01:09:47.681Z,15.5
2016-05-27T01:09:57.681Z,15.6
2016-05-27T01:10:07.699Z,15.4
2016-05-27T01:10:17.699Z,15.5
2016-05-27T01:10:27.730Z,15.4
2016-05-27T01:10:37.699Z,15.6
2016-05-27T01:10:47.715Z,15.6
2016-05-27T01:10:57.715Z,15.5
2016-05-27T01:11:07.733Z,15.6
2016-05-27T01:11:17.733Z,15.6
2016-05-27T01:11:27.733Z,15.6
2016-05-27T01:11:37.749Z,15.5
2016-05-27T01:11:47.749Z,15.5
2016-05-27T01:11:57.765Z,15.4
2016-05-27T01:12:07.768Z,15.6
2016-05-27T01:12:17.768Z,15.6
2016-05-27T01:12:27.783Z,15.7
2016-05-27T01:12:37.830Z,15.6
2016-05-27T01:12:47.799Z,15.6
2016-05-27T01:12:57.799Z,15.6
2016-05-27T01:13:07.817Z,15.6
2016-05-27T01:13:17.864Z,15.6
2016-05-27T01:13:27.817Z,15.7
2016-05-27T01:13:37.833Z,15.7
2016-05-27T01:13:47.833Z,15.6
2016-05-27T01:13:57.849Z,15.6
2016-05-27T01:14:07.852Z,15.7
2016-05-27T01:14:17.852Z,15.6
2016-05-27T01:14:27.867Z,15.6
2016-05-27T01:14:37.992Z,15.7
2016-05-27T01:14:47.867Z,15.7
2016-05-27T01:14:57.883Z,15.7
2016-05-27T01:15:07.885Z,15.6
2016-05-27T01:15:17.932Z,15.6
2016-05-27T01:15:27.901Z,15.6
2016-05-27T01:15:37.916Z,15.5
2016-05-27T01:15:47.932Z,15.6
2016-05-27T01:15:57.947Z,15.4
2016-05-27T01:16:07.935Z,15.4
2016-05-27T01:16:17.935Z,15.6
2016-05-27T01:16:27.935Z,15.4
2016-05-27T01:16:37.950Z,15.6
2016-05-27T01:16:47.950Z,15.6
2016-05-27T01:16:57.966Z,15.6
2016-05-27T01:17:07.969Z,15.6
2016-05-27T01:17:17.969Z,15.5
2016-05-27T01:17:27.985Z,15.5
2016-05-27T01:17:37.985Z,15.5
2016-05-27T01:17:48.000Z,15.6
2016-05-27T01:17:58.000Z,15.7
2016-05-27T01:18:08.003Z,15.6
2016-05-27T01:18:18.019Z,15.6
2016-05-27T01:18:28.081Z,15.5
2016-05-27T01:18:38.050Z,15.7
2016-05-27T01:18:48.035Z,15.6
2016-05-27T01:18:58.050Z,15.6
2016-05-27T01:19:08.083Z,15.6
2016-05-27T01:19:18.396Z,15.6
2016-05-27T01:19:28.068Z,15.5
2016-05-27T01:19:38.068Z,15.6
2016-05-27T01:19:48.146Z,15.6
2016-05-27T01:19:58.083Z,15.6
2016-05-27T01:20:08.086Z,15.5
2016-05-27T01:20:18.102Z,15.6
2016-05-27T01:20:28.149Z,15.6
2016-05-27T01:20:38.118Z,15.7
2016-05-27T01:20:48.118Z,15.6
2016-05-27T01:20:58.118Z,15.6
2016-05-27T01:21:08.182Z,15.6
2016-05-27T01:21:18.135Z,15.6
2016-05-27T01:21:28.151Z,15.6
2016-05-27T01:21:38.151Z,15.7
2016-05-27T01:21:48.167Z,15.7
2016-05-27T01:21:58.167Z,15.6
2016-05-27T01:22:08.171Z,15.6
2016-05-27T01:22:18.186Z,15.6
2016-05-27T01:22:28.186Z,15.6
2016-05-27T01:22:38.202Z,15.6
2016-05-27T01:22:48.202Z,15.6
2016-05-27T01:22:58.202Z,15.6
2016-05-27T01:23:08.203Z,15.6
2016-05-27T01:23:18.218Z,15.6
2016-05-27T01:23:28.218Z,15.7
2016-05-27T01:23:38.234Z,15.7
2016-05-27T01:23:48.234Z,15.6
2016-05-27T01:23:58.265Z,15.7
2016-05-27T01:24:08.253Z,15.7
2016-05-27T01:24:18.253Z,15.5
2016-05-27T01:24:28.268Z,15.6
2016-05-27T01:24:38.268Z,15.6
2016-05-27T01:24:48.284Z,15.6
2016-05-27T01:24:58.581Z,15.6
2016-05-27T01:25:08.287Z,15.6
2016-05-27T01:25:18.303Z,15.5
2016-05-27T01:25:28.303Z,15.5
2016-05-27T01:25:38.412Z,15.6
2016-05-27T01:25:48.334Z,15.4
2016-05-27T01:25:58.318Z,15.6
2016-05-27T01:26:08.337Z,15.6
2016-05-27T01:26:18.352Z,15.4
2016-05-27T01:26:28.352Z,15.5
2016-05-27T01:26:38.352Z,15.4
2016-05-27T01:26:48.352Z,15.4
2016-05-27T01:26:58.399Z,15.3
2016-05-27T01:27:08.371Z,15.4
2016-05-27T01:27:18.387Z,15.4
2016-05-27T01:27:28.387Z,15.3
2016-05-27T01:27:38.402Z,15.3
2016-05-27T01:27:48.402Z,15.3
2016-05-27T01:27:58.402Z,15.4
2016-05-27T01:28:08.405Z,15.3
2016-05-27T01:28:18.421Z,15.3
2016-05-27T01:28:28.421Z,15.3
2016-05-27T01:28:38.437Z,15.3
2016-05-27T01:28:48.437Z,15.4
2016-05-27T01:28:58.452Z,15.3
2016-05-27T01:29:08.454Z,15.3
2016-05-27T01:29:18.454Z,15.3
2016-05-27T01:29:28.470Z,15.2
2016-05-27T01:29:38.470Z,15.3
2016-05-27T01:29:48.470Z,15.3
2016-05-27T01:29:58.485Z,15.3
2016-05-27T01:30:08.520Z,15.3
2016-05-27T01:30:18.535Z,15.3
2016-05-27T01:30:28.504Z,15.3
2016-05-27T01:30:38.520Z,15.3
2016-05-27T01:30:48.520Z,15.3
2016-05-27T01:30:58.520Z,15.3
2016-05-27T01:31:08.537Z,15.3
2016-05-27T01:31:18.537Z,15.3
2016-05-27T01:31:28.537Z,15.3
2016-05-27T01:31:38.553Z,15.3
2016-05-27T01:31:48.553Z,15.3
2016-05-27T01:31:58.569Z,15.3
2016-05-27T01:32:08.572Z,15.2
2016-05-27T01:32:18.587Z,15.3
2016-05-27T01:32:28.587Z,15.2
2016-05-27T01:32:38.587Z,15.3
2016-05-27T01:32:48.681Z,15.3
2016-05-27T01:32:58.603Z,15.3
2016-05-27T01:33:08.621Z,15.3
2016-05-27T01:33:18.621Z,15.3
2016-05-27T01:33:28.653Z,15.3
2016-05-27T01:33:38.637Z,15.3
2016-05-27T01:33:48.637Z,15.2
2016-05-27T01:33:58.668Z,15.4
2016-05-27T01:34:08.671Z,15.3
2016-05-27T01:34:18.656Z,15.4
2016-05-27T01:34:28.968Z,15.3
2016-05-27T01:34:38.671Z,15.5
2016-05-27T01:34:48.703Z,15.4
2016-05-27T01:34:58.687Z,15.6
2016-05-27T01:35:08.689Z,15.6
2016-05-27T01:35:18.705Z,15.5
2016-05-27T01:35:28.705Z,15.4
2016-05-27T01:35:38.720Z,15.5
2016-05-27T01:35:48.720Z,15.5
2016-05-27T01:35:58.720Z,15.6
2016-05-27T01:36:08.738Z,15.6
2016-05-27T01:36:18.738Z,15.4
2016-05-27T01:36:28.753Z,15.6
2016-05-27T01:36:38.753Z,15.5
2016-05-27T01:36:48.769Z,15.5
2016-05-27T01:36:58.769Z,15.7
2016-05-27T01:37:08.773Z,15.8
2016-05-27T01:37:18.789Z,15.8
2016-05-27T01:37:28.789Z,15.9
2016-05-27T01:37:38.789Z,15.9
2016-05-27T01:37:48.804Z,15.9
2016-05-27T01:37:58.820Z,15.8
2016-05-27T01:38:08.822Z,15.8
2016-05-27T01:38:18.822Z,15.7
2016-05-27T01:38:28.822Z,15.7
2016-05-27T01:38:38.838Z,15.7
2016-05-27T01:38:48.838Z,15.9
2016-05-27T01:38:58.838Z,15.9
2016-05-27T01:39:08.856Z,15.8
2016-05-27T01:39:18.856Z,16
2016-05-27T01:39:28.872Z,15.9
2016-05-27T01:39:38.872Z,15.9
2016-05-27T01:39:48.887Z,15.8
2016-05-27T01:39:58.887Z,15.8
2016-05-27T01:40:08.889Z,15.9
2016-05-27T01:40:18.905Z,15.9
2016-05-27T01:40:28.905Z,15.9
2016-05-27T01:40:38.921Z,15.9
2016-05-27T01:40:48.921Z,15.9
2016-05-27T01:40:58.921Z,15.8
2016-05-27T01:41:08.939Z,15.7
2016-05-27T01:41:18.939Z,15.6
2016-05-27T01:41:28.955Z,15.6
2016-05-27T01:41:38.955Z,15.7
2016-05-27T01:41:48.986Z,15.9
2016-05-27T01:41:58.971Z,15.9
2016-05-27T01:42:08.974Z,15.9
2016-05-27T01:42:18.974Z,15.9
2016-05-27T01:42:28.989Z,15.9
2016-05-27T01:42:38.989Z,16
2016-05-27T01:42:49.005Z,16.1
2016-05-27T01:42:59.020Z,16.1
2016-05-27T01:43:09.023Z,16
2016-05-27T01:43:19.023Z,15.9
2016-05-27T01:43:29.039Z,16
2016-05-27T01:43:39.055Z,15.9
2016-05-27T01:43:49.039Z,15.9
2016-05-27T01:43:59.070Z,16
2016-05-27T01:44:09.057Z,16
2016-05-27T01:44:19.057Z,16
2016-05-27T01:44:29.072Z,15.9
2016-05-27T01:44:39.088Z,15.8
2016-05-27T01:44:49.088Z,15.9
2016-05-27T01:44:59.104Z,15.8
2016-05-27T01:45:09.107Z,15.9
2016-05-27T01:45:19.107Z,15.9
2016-05-27T01:45:29.122Z,15.9
2016-05-27T01:45:39.122Z,15.9
2016-05-27T01:45:49.169Z,16
2016-05-27T01:45:59.138Z,16
2016-05-27T01:46:09.141Z,16.1
2016-05-27T01:46:19.141Z,16.1
2016-05-27T01:46:29.156Z,16.1
2016-05-27T01:46:39.156Z,16.2
2016-05-27T01:46:49.156Z,16.2
2016-05-27T01:46:59.172Z,16.2
2016-05-27T01:47:09.190Z,16.1
2016-05-27T01:47:19.190Z,16
2016-05-27T01:47:29.190Z,16.1
2016-05-27T01:47:39.205Z,16.2
2016-05-27T01:47:49.205Z,16.1
2016-05-27T01:47:59.221Z,16
2016-05-27T01:48:09.458Z,15.9
2016-05-27T01:48:19.224Z,15.9
2016-05-27T01:48:29.240Z,16
2016-05-27T01:48:39.240Z,15.9
2016-05-27T01:48:49.646Z,15.9
2016-05-27T01:48:59.255Z,16.1
2016-05-27T01:49:09.260Z,16.1
2016-05-27T01:49:19.260Z,16.2
2016-05-27T01:49:29.276Z,16.2
2016-05-27T01:49:39.291Z,16.1
2016-05-27T01:49:49.291Z,16.1
2016-05-27T01:49:59.291Z,16.2
2016-05-27T01:50:09.329Z,16.1
2016-05-27T01:50:19.329Z,16
2016-05-27T01:50:29.329Z,15.9
2016-05-27T01:50:39.345Z,15.9
2016-05-27T01:50:49.345Z,15.9
2016-05-27T01:50:59.345Z,16
2016-05-27T01:51:09.382Z,15.9
2016-05-27T01:51:19.398Z,16
2016-05-27T01:51:29.398Z,16
2016-05-27T01:51:39.398Z,15.9
2016-05-27T01:51:49.414Z,15.9
2016-05-27T01:51:59.414Z,15.9
2016-05-27T01:52:09.436Z,15.9
2016-05-27T01:52:19.451Z,16
2016-05-27T01:52:29.451Z,16.1
2016-05-27T01:52:39.451Z,16.2
2016-05-27T01:52:49.467Z,16.2
2016-05-27T01:52:59.482Z,16
2016-05-27T01:53:09.504Z,15.9
2016-05-27T01:53:19.504Z,15.9
2016-05-27T01:53:29.504Z,16
2016-05-27T01:53:39.520Z,16
2016-05-27T01:53:49.536Z,15.8
2016-05-27T01:53:59.551Z,15.8
2016-05-27T01:54:09.556Z,15.7
2016-05-27T01:54:19.556Z,15.7
2016-05-27T01:54:29.571Z,15.8
2016-05-27T01:54:39.571Z,15.7
2016-05-27T01:54:49.587Z,15.7
2016-05-27T01:54:59.603Z,15.9
2016-05-27T01:55:09.613Z,16
2016-05-27T01:55:19.613Z,15.9
2016-05-27T01:55:29.628Z,15.8
2016-05-27T01:55:39.628Z,15.8
2016-05-27T01:55:49.628Z,15.7
2016-05-27T01:55:59.644Z,15.6
2016-05-27T01:56:09.653Z,15.5
2016-05-27T01:56:19.653Z,15.6
2016-05-27T01:56:29.668Z,15.7
2016-05-27T01:56:39.668Z,15.6
2016-05-27T01:56:49.668Z,15.6
2016-05-27T01:56:59.684Z,15.5
2016-05-27T01:57:09.694Z,15.6
2016-05-27T01:57:19.710Z,15.6
2016-05-27T01:57:29.725Z,15.4
2016-05-27T01:57:39.710Z,15.6
2016-05-27T01:57:49.725Z,15.6
2016-05-27T01:57:59.725Z,15.7
2016-05-27T01:58:09.751Z,15.7
2016-05-27T01:58:19.751Z,15.6
2016-05-27T01:58:29.767Z,15.7
2016-05-27T01:58:39.767Z,15.7
2016-05-27T01:58:49.782Z,15.6
2016-05-27T01:58:59.782Z,15.6
2016-05-27T01:59:09.790Z,15.6
2016-05-27T01:59:19.806Z,15.5
2016-05-27T01:59:29.806Z,15.5
2016-05-27T01:59:39.821Z,15.6
2016-05-27T01:59:49.821Z,15.7
2016-05-27T01:59:59.853Z,15.7
2016-05-27T02:00:09.859Z,15.8
2016-05-27T02:00:19.843Z,15.7
2016-05-27T02:00:29.843Z,15.8
2016-05-27T02:00:39.859Z,15.7
2016-05-27T02:00:49.859Z,15.6
2016-05-27T02:00:59.874Z,15.7
2016-05-27T02:01:09.896Z,15.6
2016-05-27T02:01:19.896Z,15.6
2016-05-27T02:01:29.896Z,15.6
2016-05-27T02:01:39.912Z,15.6
2016-05-27T02:01:49.912Z,15.6
2016-05-27T02:01:59.912Z,15.6
2016-05-27T02:02:09.916Z,15.4
2016-05-27T02:02:19.947Z,15.5
2016-05-27T02:02:29.931Z,15.3
2016-05-27T02:02:39.947Z,15.4
2016-05-27T02:02:49.947Z,15.4
2016-05-27T02:02:59.962Z,15.4
2016-05-27T02:03:09.984Z,15.4
2016-05-27T02:03:19.968Z,15.4
2016-05-27T02:03:29.984Z,15.5
2016-05-27T02:03:40.000Z,15.5
2016-05-27T02:03:50.000Z,15.4
2016-05-27T02:04:00.297Z,15.3
2016-05-27T02:04:10.020Z,15.4
2016-05-27T02:04:20.036Z,15.5
2016-05-27T02:04:30.020Z,15.3
2016-05-27T02:04:40.020Z,15.4
2016-05-27T02:04:50.067Z,15.4
2016-05-27T02:05:00.036Z,15.5
2016-05-27T02:05:10.055Z,15.5
2016-05-27T02:05:20.055Z,15.4
2016-05-27T02:05:30.070Z,15.5
2016-05-27T02:05:40.070Z,15.5
2016-05-27T02:05:50.070Z,15.4
2016-05-27T02:06:00.086Z,15.5
2016-05-27T02:06:10.090Z,15.4
2016-05-27T02:06:20.105Z,15.5
2016-05-27T02:06:30.105Z,15.5
2016-05-27T02:06:40.105Z,15.6
2016-05-27T02:06:50.121Z,15.6
2016-05-27T02:07:00.121Z,15.6
2016-05-27T02:07:10.141Z,15.6
2016-05-27T02:07:20.141Z,15.4
2016-05-27T02:07:30.156Z,15.5
2016-05-27T02:07:40.156Z,15.5
2016-05-27T02:07:50.156Z,15.5
2016-05-27T02:08:00.234Z,15.5
2016-05-27T02:08:10.176Z,15.5
2016-05-27T02:08:20.176Z,15.5
2016-05-27T02:08:30.192Z,15.7
2016-05-27T02:08:40.207Z,15.5
2016-05-27T02:08:50.207Z,15.3
2016-05-27T02:09:00.207Z,15.4
2016-05-27T02:09:10.225Z,15.3
2016-05-27T02:09:20.240Z,15.4
2016-05-27T02:09:30.225Z,15.3
2016-05-27T02:09:40.240Z,15.4
2016-05-27T02:09:50.240Z,15.4
2016-05-27T02:10:00.256Z,15.4
2016-05-27T02:10:10.260Z,15.4
2016-05-27T02:10:20.260Z,15.4
2016-05-27T02:10:30.260Z,15.4
2016-05-27T02:10:40.276Z,15.4
2016-05-27T02:10:50.276Z,15.4
2016-05-27T02:11:00.291Z,15.5
2016-05-27T02:11:10.293Z,15.4
2016-05-27T02:11:20.309Z,15.3
2016-05-27T02:11:30.309Z,15.3
2016-05-27T02:11:40.309Z,15.3
2016-05-27T02:11:50.340Z,15.2
2016-05-27T02:12:00.325Z,15.3
2016-05-27T02:12:10.344Z,15.3
2016-05-27T02:12:20.344Z,15.3
2016-05-27T02:12:30.360Z,15.2
2016-05-27T02:12:40.360Z,15.2
2016-05-27T02:12:50.360Z,15.2
2016-05-27T02:13:00.360Z,15.2
2016-05-27T02:13:10.394Z,15.2
2016-05-27T02:13:20.394Z,15.2
2016-05-27T02:13:30.394Z,15.3
2016-05-27T02:13:40.394Z,15.2
2016-05-27T02:13:50.425Z,15.3